sensor_id;sensor_type;location;lat;lon;timestamp;P1;durP1;ratioP1;P2;durP2;ratioP2
29202;SDS011;16245;51.170;4.884;2022-11-15T00:01:50;27.83;;;20.63;;
29202;SDS011;16245;51.170;4.884;2022-11-15T00:04:15;26.13;;;18.48;;
29202;SDS011;16245;51.170;4.884;2022-11-15T00:06:41;27.30;;;20.38;;
29202;SDS011;16245;51.170;4.884;2022-11-15T00:09:06;26.63;;;19.65;;
29202;SDS011;16245;51.170;4.884;2022-11-15T00:11:32;29.10;;;20.38;;
29202;SDS011;16245;51.170;4.884;2022-11-15T00:13:58;26.92;;;19.90;;
29202;SDS011;16245;51.170;4.884;2022-11-15T00:16:24;28.48;;;19.15;;
29202;SDS011;16245;51.170;4.884;2022-11-15T00:18:49;27.63;;;20.48;;
29202;SDS011;16245;51.170;4.884;2022-11-15T00:21:15;28.08;;;20.50;;
29202;SDS011;16245;51.170;4.884;2022-11-15T00:23:42;29.67;;;20.13;;
29202;SDS011;16245;51.170;4.884;2022-11-15T00:26:11;28.27;;;20.55;;
29202;SDS011;16245;51.170;4.884;2022-11-15T00:28:38;31.48;;;19.25;;
29202;SDS011;16245;51.170;4.884;2022-11-15T00:31:05;27.60;;;19.45;;
29202;SDS011;16245;51.170;4.884;2022-11-15T00:33:32;28.27;;;19.83;;
29202;SDS011;16245;51.170;4.884;2022-11-15T00:36:05;26.25;;;19.35;;
29202;SDS011;16245;51.170;4.884;2022-11-15T00:38:34;30.63;;;20.13;;
29202;SDS011;16245;51.170;4.884;2022-11-15T00:41:01;21.90;;;18.73;;
29202;SDS011;16245;51.170;4.884;2022-11-15T00:43:28;25.80;;;18.80;;
29202;SDS011;16245;51.170;4.884;2022-11-15T00:45:54;29.58;;;19.42;;
29202;SDS011;16245;51.170;4.884;2022-11-15T00:48:20;21.55;;;18.50;;
29202;SDS011;16245;51.170;4.884;2022-11-15T00:50:46;27.88;;;19.70;;
29202;SDS011;16245;51.170;4.884;2022-11-15T00:53:13;23.30;;;18.17;;
29202;SDS011;16245;51.170;4.884;2022-11-15T00:55:38;25.58;;;18.92;;
29202;SDS011;16245;51.170;4.884;2022-11-15T00:58:04;26.80;;;18.13;;
29202;SDS011;16245;51.170;4.884;2022-11-15T01:00:29;29.52;;;19.95;;
29202;SDS011;16245;51.170;4.884;2022-11-15T01:02:55;25.42;;;17.92;;
29202;SDS011;16245;51.170;4.884;2022-11-15T01:05:21;23.95;;;17.60;;
29202;SDS011;16245;51.170;4.884;2022-11-15T01:07:50;25.77;;;18.65;;
29202;SDS011;16245;51.170;4.884;2022-11-15T01:10:17;26.58;;;17.98;;
29202;SDS011;16245;51.170;4.884;2022-11-15T01:12:43;26.15;;;18.45;;
29202;SDS011;16245;51.170;4.884;2022-11-15T01:15:09;23.65;;;17.60;;
29202;SDS011;16245;51.170;4.884;2022-11-15T01:17:35;28.77;;;18.27;;
29202;SDS011;16245;51.170;4.884;2022-11-15T01:20:00;25.55;;;17.00;;
29202;SDS011;16245;51.170;4.884;2022-11-15T01:22:26;21.30;;;16.95;;
29202;SDS011;16245;51.170;4.884;2022-11-15T01:24:52;26.05;;;18.20;;
29202;SDS011;16245;51.170;4.884;2022-11-15T01:27:17;31.70;;;18.92;;
29202;SDS011;16245;51.170;4.884;2022-11-15T01:29:43;27.75;;;19.70;;
29202;SDS011;16245;51.170;4.884;2022-11-15T01:32:08;27.92;;;20.20;;
29202;SDS011;16245;51.170;4.884;2022-11-15T01:34:34;32.08;;;18.92;;
29202;SDS011;16245;51.170;4.884;2022-11-15T01:37:00;30.70;;;20.77;;
29202;SDS011;16245;51.170;4.884;2022-11-15T01:39:26;32.35;;;19.70;;
29202;SDS011;16245;51.170;4.884;2022-11-15T01:41:51;36.92;;;21.15;;
29202;SDS011;16245;51.170;4.884;2022-11-15T01:49:38;25.90;;;19.55;;
29202;SDS011;16245;51.170;4.884;2022-11-15T01:52:10;29.90;;;20.77;;
29202;SDS011;16245;51.170;4.884;2022-11-15T01:54:40;32.25;;;19.27;;
29202;SDS011;16245;51.170;4.884;2022-11-15T01:57:09;30.55;;;21.10;;
29202;SDS011;16245;51.170;4.884;2022-11-15T01:59:37;30.40;;;20.17;;
29202;SDS011;16245;51.170;4.884;2022-11-15T02:02:04;36.78;;;21.08;;
29202;SDS011;16245;51.170;4.884;2022-11-15T02:04:35;33.40;;;19.85;;
29202;SDS011;16245;51.170;4.884;2022-11-15T02:07:05;37.83;;;20.35;;
29202;SDS011;16245;51.170;4.884;2022-11-15T02:09:32;34.80;;;21.65;;
29202;SDS011;16245;51.170;4.884;2022-11-15T02:12:00;29.48;;;20.38;;
29202;SDS011;16245;51.170;4.884;2022-11-15T02:14:26;34.15;;;22.15;;
29202;SDS011;16245;51.170;4.884;2022-11-15T02:40:00;30.65;;;21.73;;
29202;SDS011;16245;51.170;4.884;2022-11-15T02:42:47;29.67;;;20.25;;
29202;SDS011;16245;51.170;4.884;2022-11-15T02:45:51;31.65;;;22.45;;
29202;SDS011;16245;51.170;4.884;2022-11-15T02:48:31;34.05;;;23.17;;
29202;SDS011;16245;51.170;4.884;2022-11-15T02:50:59;33.55;;;22.73;;
29202;SDS011;16245;51.170;4.884;2022-11-15T02:53:25;33.75;;;21.65;;
29202;SDS011;16245;51.170;4.884;2022-11-15T02:55:51;36.17;;;23.25;;
29202;SDS011;16245;51.170;4.884;2022-11-15T03:04:07;34.65;;;22.67;;
29202;SDS011;16245;51.170;4.884;2022-11-15T03:06:27;34.28;;;22.98;;
29202;SDS011;16245;51.170;4.884;2022-11-15T03:09:07;33.40;;;22.40;;
29202;SDS011;16245;51.170;4.884;2022-11-15T03:11:50;24.65;;;19.83;;
29202;SDS011;16245;51.170;4.884;2022-11-15T03:14:26;26.52;;;20.90;;
29202;SDS011;16245;51.170;4.884;2022-11-15T03:19:55;26.40;;;19.95;;
29202;SDS011;16245;51.170;4.884;2022-11-15T03:22:24;27.33;;;20.67;;
29202;SDS011;16245;51.170;4.884;2022-11-15T03:24:53;30.30;;;20.75;;
29202;SDS011;16245;51.170;4.884;2022-11-15T03:27:23;25.75;;;21.23;;
29202;SDS011;16245;51.170;4.884;2022-11-15T03:29:53;26.40;;;19.50;;
29202;SDS011;16245;51.170;4.884;2022-11-15T03:32:24;22.85;;;19.33;;
29202;SDS011;16245;51.170;4.884;2022-11-15T03:35:03;28.63;;;20.15;;
29202;SDS011;16245;51.170;4.884;2022-11-15T03:40:14;29.90;;;20.33;;
29202;SDS011;16245;51.170;4.884;2022-11-15T03:42:46;31.85;;;20.83;;
29202;SDS011;16245;51.170;4.884;2022-11-15T03:45:25;29.00;;;21.42;;
29202;SDS011;16245;51.170;4.884;2022-11-15T03:48:01;30.83;;;22.38;;
29202;SDS011;16245;51.170;4.884;2022-11-15T03:50:32;31.92;;;21.75;;
29202;SDS011;16245;51.170;4.884;2022-11-15T03:52:59;34.28;;;22.15;;
29202;SDS011;16245;51.170;4.884;2022-11-15T03:55:25;32.42;;;22.05;;
29202;SDS011;16245;51.170;4.884;2022-11-15T03:57:52;29.83;;;20.75;;
29202;SDS011;16245;51.170;4.884;2022-11-15T04:00:20;29.17;;;21.08;;
29202;SDS011;16245;51.170;4.884;2022-11-15T04:02:46;35.10;;;21.17;;
29202;SDS011;16245;51.170;4.884;2022-11-15T04:05:11;28.52;;;20.52;;
29202;SDS011;16245;51.170;4.884;2022-11-15T04:07:37;29.42;;;20.23;;
29202;SDS011;16245;51.170;4.884;2022-11-15T04:10:03;29.45;;;20.25;;
29202;SDS011;16245;51.170;4.884;2022-11-15T04:12:35;29.33;;;19.73;;
29202;SDS011;16245;51.170;4.884;2022-11-15T04:20:02;31.98;;;20.88;;
29202;SDS011;16245;51.170;4.884;2022-11-15T04:22:47;34.92;;;22.27;;
29202;SDS011;16245;51.170;4.884;2022-11-15T04:25:31;32.70;;;21.98;;
29202;SDS011;16245;51.170;4.884;2022-11-15T04:27:56;31.35;;;19.90;;
29202;SDS011;16245;51.170;4.884;2022-11-15T04:30:22;37.05;;;22.05;;
29202;SDS011;16245;51.170;4.884;2022-11-15T04:32:47;30.63;;;20.50;;
29202;SDS011;16245;51.170;4.884;2022-11-15T04:35:13;33.13;;;22.20;;
29202;SDS011;16245;51.170;4.884;2022-11-15T04:37:39;30.38;;;20.50;;
29202;SDS011;16245;51.170;4.884;2022-11-15T04:40:04;25.58;;;19.50;;
29202;SDS011;16245;51.170;4.884;2022-11-15T04:42:31;25.55;;;19.17;;
29202;SDS011;16245;51.170;4.884;2022-11-15T04:44:56;28.42;;;21.35;;
29202;SDS011;16245;51.170;4.884;2022-11-15T04:47:22;27.55;;;21.17;;
29202;SDS011;16245;51.170;4.884;2022-11-15T04:49:47;27.38;;;20.00;;
29202;SDS011;16245;51.170;4.884;2022-11-15T04:52:14;26.27;;;18.05;;
29202;SDS011;16245;51.170;4.884;2022-11-15T04:54:40;27.50;;;19.58;;
29202;SDS011;16245;51.170;4.884;2022-11-15T04:57:07;24.80;;;17.15;;
29202;SDS011;16245;51.170;4.884;2022-11-15T04:59:32;25.65;;;17.90;;
29202;SDS011;16245;51.170;4.884;2022-11-15T05:01:58;24.40;;;18.65;;
29202;SDS011;16245;51.170;4.884;2022-11-15T05:04:24;23.30;;;18.88;;
29202;SDS011;16245;51.170;4.884;2022-11-15T05:06:50;24.75;;;18.38;;
29202;SDS011;16245;51.170;4.884;2022-11-15T05:09:17;26.88;;;17.75;;
29202;SDS011;16245;51.170;4.884;2022-11-15T05:11:44;25.27;;;17.55;;
29202;SDS011;16245;51.170;4.884;2022-11-15T05:14:10;23.15;;;17.25;;
29202;SDS011;16245;51.170;4.884;2022-11-15T05:16:36;24.02;;;16.67;;
29202;SDS011;16245;51.170;4.884;2022-11-15T05:19:02;30.40;;;18.10;;
29202;SDS011;16245;51.170;4.884;2022-11-15T05:21:28;28.73;;;17.88;;
29202;SDS011;16245;51.170;4.884;2022-11-15T05:23:54;23.25;;;17.75;;
29202;SDS011;16245;51.170;4.884;2022-11-15T05:26:19;24.20;;;16.75;;
29202;SDS011;16245;51.170;4.884;2022-11-15T05:28:45;28.48;;;17.52;;
29202;SDS011;16245;51.170;4.884;2022-11-15T05:31:14;27.45;;;17.88;;
29202;SDS011;16245;51.170;4.884;2022-11-15T05:33:41;27.08;;;17.77;;
29202;SDS011;16245;51.170;4.884;2022-11-15T05:36:29;21.75;;;17.35;;
29202;SDS011;16245;51.170;4.884;2022-11-15T05:39:02;26.48;;;16.90;;
29202;SDS011;16245;51.170;4.884;2022-11-15T05:41:31;27.25;;;16.88;;
29202;SDS011;16245;51.170;4.884;2022-11-15T05:44:02;26.10;;;16.52;;
29202;SDS011;16245;51.170;4.884;2022-11-15T05:46:32;31.45;;;17.40;;
29202;SDS011;16245;51.170;4.884;2022-11-15T05:49:00;21.23;;;15.15;;
29202;SDS011;16245;51.170;4.884;2022-11-15T05:51:26;23.90;;;16.80;;
29202;SDS011;16245;51.170;4.884;2022-11-15T05:53:54;25.63;;;17.20;;
29202;SDS011;16245;51.170;4.884;2022-11-15T05:56:21;20.52;;;14.73;;
29202;SDS011;16245;51.170;4.884;2022-11-15T05:58:47;21.88;;;15.77;;
29202;SDS011;16245;51.170;4.884;2022-11-15T06:01:13;21.00;;;15.73;;
29202;SDS011;16245;51.170;4.884;2022-11-15T06:03:39;19.00;;;15.30;;
29202;SDS011;16245;51.170;4.884;2022-11-15T06:06:04;26.65;;;15.80;;
29202;SDS011;16245;51.170;4.884;2022-11-15T06:08:30;19.60;;;15.48;;
29202;SDS011;16245;51.170;4.884;2022-11-15T06:10:56;33.05;;;18.33;;
29202;SDS011;16245;51.170;4.884;2022-11-15T06:13:22;29.40;;;17.70;;
29202;SDS011;16245;51.170;4.884;2022-11-15T06:15:47;25.30;;;16.40;;
29202;SDS011;16245;51.170;4.884;2022-11-15T06:18:13;24.40;;;16.27;;
29202;SDS011;16245;51.170;4.884;2022-11-15T06:20:38;20.52;;;13.43;;
29202;SDS011;16245;51.170;4.884;2022-11-15T06:23:04;26.63;;;15.15;;
29202;SDS011;16245;51.170;4.884;2022-11-15T06:25:30;30.05;;;15.60;;
29202;SDS011;16245;51.170;4.884;2022-11-15T06:27:57;22.15;;;14.27;;
29202;SDS011;16245;51.170;4.884;2022-11-15T06:30:24;28.20;;;14.88;;
29202;SDS011;16245;51.170;4.884;2022-11-15T06:32:51;21.10;;;13.43;;
29202;SDS011;16245;51.170;4.884;2022-11-15T06:35:22;25.02;;;13.88;;
29202;SDS011;16245;51.170;4.884;2022-11-15T06:37:48;19.63;;;12.75;;
29202;SDS011;16245;51.170;4.884;2022-11-15T06:40:14;18.17;;;11.93;;
29202;SDS011;16245;51.170;4.884;2022-11-15T06:42:40;17.17;;;12.75;;
29202;SDS011;16245;51.170;4.884;2022-11-15T06:45:05;15.85;;;12.25;;
29202;SDS011;16245;51.170;4.884;2022-11-15T06:47:31;14.80;;;10.77;;
29202;SDS011;16245;51.170;4.884;2022-11-15T06:49:57;15.65;;;10.88;;
29202;SDS011;16245;51.170;4.884;2022-11-15T06:52:22;15.07;;;11.15;;
29202;SDS011;16245;51.170;4.884;2022-11-15T06:54:48;18.77;;;11.35;;
29202;SDS011;16245;51.170;4.884;2022-11-15T06:57:14;13.45;;;10.43;;
29202;SDS011;16245;51.170;4.884;2022-11-15T06:59:39;15.82;;;11.00;;
29202;SDS011;16245;51.170;4.884;2022-11-15T07:02:05;11.45;;;9.88;;
29202;SDS011;16245;51.170;4.884;2022-11-15T07:04:31;16.58;;;10.30;;
29202;SDS011;16245;51.170;4.884;2022-11-15T07:06:56;18.45;;;10.55;;
29202;SDS011;16245;51.170;4.884;2022-11-15T07:09:22;14.07;;;10.00;;
29202;SDS011;16245;51.170;4.884;2022-11-15T07:11:48;18.77;;;11.27;;
29202;SDS011;16245;51.170;4.884;2022-11-15T07:14:13;14.27;;;11.13;;
29202;SDS011;16245;51.170;4.884;2022-11-15T07:16:39;13.43;;;9.70;;
29202;SDS011;16245;51.170;4.884;2022-11-15T07:19:04;11.73;;;9.55;;
29202;SDS011;16245;51.170;4.884;2022-11-15T07:21:30;16.85;;;9.75;;
29202;SDS011;16245;51.170;4.884;2022-11-15T07:23:55;12.82;;;9.15;;
29202;SDS011;16245;51.170;4.884;2022-11-15T07:26:21;14.13;;;9.32;;
29202;SDS011;16245;51.170;4.884;2022-11-15T07:28:47;13.50;;;9.02;;
29202;SDS011;16245;51.170;4.884;2022-11-15T07:31:12;14.35;;;8.68;;
29202;SDS011;16245;51.170;4.884;2022-11-15T07:33:38;14.98;;;9.05;;
29202;SDS011;16245;51.170;4.884;2022-11-15T07:36:04;17.65;;;10.82;;
29202;SDS011;16245;51.170;4.884;2022-11-15T07:38:31;12.90;;;9.95;;
29202;SDS011;16245;51.170;4.884;2022-11-15T07:41:00;15.50;;;9.45;;
29202;SDS011;16245;51.170;4.884;2022-11-15T07:43:27;13.02;;;9.65;;
29202;SDS011;16245;51.170;4.884;2022-11-15T07:45:54;13.05;;;9.23;;
29202;SDS011;16245;51.170;4.884;2022-11-15T07:48:21;14.52;;;9.48;;
29202;SDS011;16245;51.170;4.884;2022-11-15T07:50:47;15.20;;;9.18;;
29202;SDS011;16245;51.170;4.884;2022-11-15T07:53:13;12.63;;;9.50;;
29202;SDS011;16245;51.170;4.884;2022-11-15T07:55:39;15.70;;;10.25;;
29202;SDS011;16245;51.170;4.884;2022-11-15T07:58:06;13.93;;;10.57;;
29202;SDS011;16245;51.170;4.884;2022-11-15T08:00:34;15.20;;;10.90;;
29202;SDS011;16245;51.170;4.884;2022-11-15T08:03:04;15.40;;;10.13;;
29202;SDS011;16245;51.170;4.884;2022-11-15T08:05:31;19.00;;;8.95;;
29202;SDS011;16245;51.170;4.884;2022-11-15T08:07:58;13.20;;;8.50;;
29202;SDS011;16245;51.170;4.884;2022-11-15T08:10:24;15.32;;;8.93;;
29202;SDS011;16245;51.170;4.884;2022-11-15T08:13:00;16.05;;;8.93;;
29202;SDS011;16245;51.170;4.884;2022-11-15T08:15:27;13.25;;;8.50;;
29202;SDS011;16245;51.170;4.884;2022-11-15T08:17:56;9.98;;;7.75;;
29202;SDS011;16245;51.170;4.884;2022-11-15T08:20:24;15.13;;;9.18;;
29202;SDS011;16245;51.170;4.884;2022-11-15T08:22:51;12.80;;;8.50;;
29202;SDS011;16245;51.170;4.884;2022-11-15T08:25:16;12.55;;;9.60;;
29202;SDS011;16245;51.170;4.884;2022-11-15T08:27:42;13.55;;;9.18;;
29202;SDS011;16245;51.170;4.884;2022-11-15T08:30:08;11.80;;;8.52;;
29202;SDS011;16245;51.170;4.884;2022-11-15T08:32:35;12.73;;;8.93;;
29202;SDS011;16245;51.170;4.884;2022-11-15T08:35:00;12.63;;;8.63;;
29202;SDS011;16245;51.170;4.884;2022-11-15T08:37:26;10.02;;;8.13;;
29202;SDS011;16245;51.170;4.884;2022-11-15T08:39:51;10.13;;;7.55;;
29202;SDS011;16245;51.170;4.884;2022-11-15T08:42:17;7.65;;;6.47;;
29202;SDS011;16245;51.170;4.884;2022-11-15T08:44:43;10.55;;;6.63;;
29202;SDS011;16245;51.170;4.884;2022-11-15T08:47:10;10.68;;;5.93;;
29202;SDS011;16245;51.170;4.884;2022-11-15T08:49:37;10.75;;;6.07;;
29202;SDS011;16245;51.170;4.884;2022-11-15T08:52:03;8.40;;;5.47;;
29202;SDS011;16245;51.170;4.884;2022-11-15T08:54:28;7.50;;;5.10;;
29202;SDS011;16245;51.170;4.884;2022-11-15T08:56:54;7.65;;;5.20;;
29202;SDS011;16245;51.170;4.884;2022-11-15T08:59:23;7.78;;;4.20;;
29202;SDS011;16245;51.170;4.884;2022-11-15T09:01:55;6.55;;;3.88;;
29202;SDS011;16245;51.170;4.884;2022-11-15T09:04:20;6.50;;;3.38;;
29202;SDS011;16245;51.170;4.884;2022-11-15T09:06:46;5.45;;;3.05;;
29202;SDS011;16245;51.170;4.884;2022-11-15T09:09:12;5.35;;;3.00;;
29202;SDS011;16245;51.170;4.884;2022-11-15T09:11:37;11.40;;;2.72;;
29202;SDS011;16245;51.170;4.884;2022-11-15T09:14:15;6.50;;;2.60;;
29202;SDS011;16245;51.170;4.884;2022-11-15T09:16:46;4.88;;;2.50;;
29202;SDS011;16245;51.170;4.884;2022-11-15T09:19:12;4.32;;;2.22;;
29202;SDS011;16245;51.170;4.884;2022-11-15T09:21:39;5.65;;;2.80;;
29202;SDS011;16245;51.170;4.884;2022-11-15T09:24:05;4.82;;;1.90;;
29202;SDS011;16245;51.170;4.884;2022-11-15T09:26:31;5.88;;;2.25;;
29202;SDS011;16245;51.170;4.884;2022-11-15T09:28:57;5.05;;;2.10;;
29202;SDS011;16245;51.170;4.884;2022-11-15T09:31:26;5.95;;;2.75;;
29202;SDS011;16245;51.170;4.884;2022-11-15T09:33:52;3.90;;;1.77;;
29202;SDS011;16245;51.170;4.884;2022-11-15T09:36:18;2.88;;;2.00;;
29202;SDS011;16245;51.170;4.884;2022-11-15T09:38:43;3.42;;;1.70;;
29202;SDS011;16245;51.170;4.884;2022-11-15T09:49:09;4.15;;;1.52;;
29202;SDS011;16245;51.170;4.884;2022-11-15T09:51:43;5.28;;;1.55;;
29202;SDS011;16245;51.170;4.884;2022-11-15T10:04:46;5.28;;;1.40;;
29202;SDS011;16245;51.170;4.884;2022-11-15T10:07:14;3.70;;;1.60;;
29202;SDS011;16245;51.170;4.884;2022-11-15T10:12:47;6.20;;;2.00;;
29202;SDS011;16245;51.170;4.884;2022-11-15T10:15:18;4.68;;;1.38;;
29202;SDS011;16245;51.170;4.884;2022-11-15T10:18:03;7.07;;;1.67;;
29202;SDS011;16245;51.170;4.884;2022-11-15T10:21:11;6.13;;;1.52;;
29202;SDS011;16245;51.170;4.884;2022-11-15T10:23:46;4.60;;;1.52;;
29202;SDS011;16245;51.170;4.884;2022-11-15T10:26:15;6.47;;;1.73;;
29202;SDS011;16245;51.170;4.884;2022-11-15T10:28:42;7.25;;;2.20;;
29202;SDS011;16245;51.170;4.884;2022-11-15T10:31:27;6.53;;;2.42;;
29202;SDS011;16245;51.170;4.884;2022-11-15T10:36:55;4.30;;;1.40;;
29202;SDS011;16245;51.170;4.884;2022-11-15T10:39:26;6.07;;;2.40;;
29202;SDS011;16245;51.170;4.884;2022-11-15T10:41:55;7.47;;;1.55;;
29202;SDS011;16245;51.170;4.884;2022-11-15T10:46:49;7.45;;;2.30;;
29202;SDS011;16245;51.170;4.884;2022-11-15T10:49:30;7.80;;;1.92;;
29202;SDS011;16245;51.170;4.884;2022-11-15T10:52:16;3.20;;;1.23;;
29202;SDS011;16245;51.170;4.884;2022-11-15T10:57:19;8.65;;;2.92;;
29202;SDS011;16245;51.170;4.884;2022-11-15T10:59:48;12.23;;;1.95;;
29202;SDS011;16245;51.170;4.884;2022-11-15T11:04:54;6.13;;;1.35;;
29202;SDS011;16245;51.170;4.884;2022-11-15T11:07:26;7.72;;;1.50;;
29202;SDS011;16245;51.170;4.884;2022-11-15T11:09:57;2.60;;;1.20;;
29202;SDS011;16245;51.170;4.884;2022-11-15T11:12:27;4.32;;;1.55;;
29202;SDS011;16245;51.170;4.884;2022-11-15T11:14:55;3.17;;;1.20;;
29202;SDS011;16245;51.170;4.884;2022-11-15T11:48:20;5.15;;;1.65;;
29202;SDS011;16245;51.170;4.884;2022-11-15T11:51:05;4.47;;;1.10;;
29202;SDS011;16245;51.170;4.884;2022-11-15T11:53:47;5.43;;;1.50;;
29202;SDS011;16245;51.170;4.884;2022-11-15T11:56:28;4.78;;;2.00;;
29202;SDS011;16245;51.170;4.884;2022-11-15T11:59:00;7.50;;;2.00;;
29202;SDS011;16245;51.170;4.884;2022-11-15T12:01:40;10.98;;;2.00;;
29202;SDS011;16245;51.170;4.884;2022-11-15T12:17:34;6.35;;;1.48;;
29202;SDS011;16245;51.170;4.884;2022-11-15T12:20:05;5.57;;;1.55;;
29202;SDS011;16245;51.170;4.884;2022-11-15T12:22:53;4.47;;;1.23;;
29202;SDS011;16245;51.170;4.884;2022-11-15T12:25:23;5.68;;;1.10;;
29202;SDS011;16245;51.170;4.884;2022-11-15T12:27:55;3.38;;;1.40;;
29202;SDS011;16245;51.170;4.884;2022-11-15T12:30:38;8.13;;;2.17;;
29202;SDS011;16245;51.170;4.884;2022-11-15T12:33:36;1.77;;;0.98;;
29202;SDS011;16245;51.170;4.884;2022-11-15T12:36:50;6.07;;;2.08;;
29202;SDS011;16245;51.170;4.884;2022-11-15T12:39:09;7.32;;;1.75;;
29202;SDS011;16245;51.170;4.884;2022-11-15T12:41:37;4.45;;;1.33;;
29202;SDS011;16245;51.170;4.884;2022-11-15T12:44:09;6.55;;;1.30;;
29202;SDS011;16245;51.170;4.884;2022-11-15T12:49:10;3.28;;;1.60;;
29202;SDS011;16245;51.170;4.884;2022-11-15T13:02:27;2.55;;;1.10;;
29202;SDS011;16245;51.170;4.884;2022-11-15T13:04:55;3.00;;;1.40;;
29202;SDS011;16245;51.170;4.884;2022-11-15T13:30:39;4.03;;;1.30;;
29202;SDS011;16245;51.170;4.884;2022-11-15T13:33:15;3.35;;;1.00;;
29202;SDS011;16245;51.170;4.884;2022-11-15T13:36:00;4.88;;;1.60;;
29202;SDS011;16245;51.170;4.884;2022-11-15T13:38:32;8.45;;;1.77;;
29202;SDS011;16245;51.170;4.884;2022-11-15T13:40:59;2.10;;;0.80;;
29202;SDS011;16245;51.170;4.884;2022-11-15T13:43:45;2.70;;;1.35;;
29202;SDS011;16245;51.170;4.884;2022-11-15T13:46:13;2.50;;;1.33;;
29202;SDS011;16245;51.170;4.884;2022-11-15T13:48:43;7.70;;;1.20;;
29202;SDS011;16245;51.170;4.884;2022-11-15T13:53:51;5.05;;;1.17;;
29202;SDS011;16245;51.170;4.884;2022-11-15T13:56:28;3.15;;;1.15;;
29202;SDS011;16245;51.170;4.884;2022-11-15T13:58:57;2.53;;;1.27;;
29202;SDS011;16245;51.170;4.884;2022-11-15T14:01:23;6.05;;;1.98;;
29202;SDS011;16245;51.170;4.884;2022-11-15T14:03:56;5.18;;;1.65;;
29202;SDS011;16245;51.170;4.884;2022-11-15T14:06:24;5.00;;;1.63;;
29202;SDS011;16245;51.170;4.884;2022-11-15T14:11:36;7.82;;;1.77;;
29202;SDS011;16245;51.170;4.884;2022-11-15T14:14:04;6.10;;;1.25;;
29202;SDS011;16245;51.170;4.884;2022-11-15T14:16:42;3.72;;;1.60;;
29202;SDS011;16245;51.170;4.884;2022-11-15T14:19:10;2.05;;;1.17;;
29202;SDS011;16245;51.170;4.884;2022-11-15T14:30:34;3.78;;;1.65;;
29202;SDS011;16245;51.170;4.884;2022-11-15T14:33:00;4.50;;;1.42;;
29202;SDS011;16245;51.170;4.884;2022-11-15T14:35:27;2.25;;;1.15;;
29202;SDS011;16245;51.170;4.884;2022-11-15T14:37:53;8.85;;;1.40;;
29202;SDS011;16245;51.170;4.884;2022-11-15T14:40:20;4.40;;;1.77;;
29202;SDS011;16245;51.170;4.884;2022-11-15T14:42:47;5.88;;;1.42;;
29202;SDS011;16245;51.170;4.884;2022-11-15T14:47:44;3.63;;;1.70;;
29202;SDS011;16245;51.170;4.884;2022-11-15T14:50:13;6.25;;;2.30;;
29202;SDS011;16245;51.170;4.884;2022-11-15T14:52:43;3.22;;;1.25;;
29202;SDS011;16245;51.170;4.884;2022-11-15T14:55:15;10.88;;;2.03;;
29202;SDS011;16245;51.170;4.884;2022-11-15T14:57:49;5.55;;;1.92;;
29202;SDS011;16245;51.170;4.884;2022-11-15T15:00:15;4.70;;;2.22;;
29202;SDS011;16245;51.170;4.884;2022-11-15T15:02:42;4.60;;;2.10;;
29202;SDS011;16245;51.170;4.884;2022-11-15T15:05:12;4.43;;;2.33;;
29202;SDS011;16245;51.170;4.884;2022-11-15T15:07:38;4.20;;;2.58;;
29202;SDS011;16245;51.170;4.884;2022-11-15T15:10:04;3.78;;;2.47;;
29202;SDS011;16245;51.170;4.884;2022-11-15T15:12:30;4.22;;;2.10;;
29202;SDS011;16245;51.170;4.884;2022-11-15T15:14:56;6.95;;;2.10;;
29202;SDS011;16245;51.170;4.884;2022-11-15T15:17:21;6.88;;;2.35;;
29202;SDS011;16245;51.170;4.884;2022-11-15T15:19:47;4.00;;;2.30;;
29202;SDS011;16245;51.170;4.884;2022-11-15T15:22:14;6.25;;;2.40;;
29202;SDS011;16245;51.170;4.884;2022-11-15T15:24:44;5.43;;;2.70;;
29202;SDS011;16245;51.170;4.884;2022-11-15T15:27:11;5.63;;;2.83;;
29202;SDS011;16245;51.170;4.884;2022-11-15T15:29:37;7.18;;;3.08;;
29202;SDS011;16245;51.170;4.884;2022-11-15T15:32:04;4.05;;;2.42;;
29202;SDS011;16245;51.170;4.884;2022-11-15T15:34:30;6.03;;;2.90;;
29202;SDS011;16245;51.170;4.884;2022-11-15T15:39:54;8.40;;;2.97;;
29202;SDS011;16245;51.170;4.884;2022-11-15T15:42:21;3.50;;;2.30;;
29202;SDS011;16245;51.170;4.884;2022-11-15T15:44:48;5.88;;;2.00;;
29202;SDS011;16245;51.170;4.884;2022-11-15T15:47:18;9.10;;;2.90;;
29202;SDS011;16245;51.170;4.884;2022-11-15T15:49:46;5.57;;;2.92;;
29202;SDS011;16245;51.170;4.884;2022-11-15T15:52:12;4.03;;;2.80;;
29202;SDS011;16245;51.170;4.884;2022-11-15T15:54:38;3.47;;;2.00;;
29202;SDS011;16245;51.170;4.884;2022-11-15T15:57:05;4.35;;;2.55;;
29202;SDS011;16245;51.170;4.884;2022-11-15T15:59:32;5.13;;;2.25;;
29202;SDS011;16245;51.170;4.884;2022-11-15T16:01:57;3.50;;;2.20;;
29202;SDS011;16245;51.170;4.884;2022-11-15T16:04:23;4.07;;;2.63;;
29202;SDS011;16245;51.170;4.884;2022-11-15T16:06:49;4.00;;;2.00;;
29202;SDS011;16245;51.170;4.884;2022-11-15T16:09:18;4.57;;;2.67;;
29202;SDS011;16245;51.170;4.884;2022-11-15T16:12:04;6.50;;;2.70;;
29202;SDS011;16245;51.170;4.884;2022-11-15T16:14:30;8.25;;;2.92;;
29202;SDS011;16245;51.170;4.884;2022-11-15T16:16:56;6.60;;;3.42;;
29202;SDS011;16245;51.170;4.884;2022-11-15T16:19:22;6.90;;;3.28;;
29202;SDS011;16245;51.170;4.884;2022-11-15T16:21:48;3.97;;;2.65;;
29202;SDS011;16245;51.170;4.884;2022-11-15T16:24:14;5.18;;;3.15;;
29202;SDS011;16245;51.170;4.884;2022-11-15T16:26:39;5.60;;;3.70;;
29202;SDS011;16245;51.170;4.884;2022-11-15T16:29:05;7.70;;;4.10;;
29202;SDS011;16245;51.170;4.884;2022-11-15T16:31:32;7.57;;;2.97;;
29202;SDS011;16245;51.170;4.884;2022-11-15T16:33:57;6.13;;;3.50;;
29202;SDS011;16245;51.170;4.884;2022-11-15T16:36:24;5.88;;;3.05;;
29202;SDS011;16245;51.170;4.884;2022-11-15T16:38:50;6.18;;;3.17;;
29202;SDS011;16245;51.170;4.884;2022-11-15T16:41:17;5.22;;;3.00;;
29202;SDS011;16245;51.170;4.884;2022-11-15T16:43:44;4.07;;;3.15;;
29202;SDS011;16245;51.170;4.884;2022-11-15T16:46:15;7.63;;;4.38;;
29202;SDS011;16245;51.170;4.884;2022-11-15T16:48:43;5.78;;;3.40;;
29202;SDS011;16245;51.170;4.884;2022-11-15T16:51:09;8.57;;;3.47;;
29202;SDS011;16245;51.170;4.884;2022-11-15T16:53:35;6.80;;;3.38;;
29202;SDS011;16245;51.170;4.884;2022-11-15T16:56:00;6.28;;;3.30;;
29202;SDS011;16245;51.170;4.884;2022-11-15T16:58:26;4.32;;;3.33;;
29202;SDS011;16245;51.170;4.884;2022-11-15T17:00:52;6.88;;;3.40;;
29202;SDS011;16245;51.170;4.884;2022-11-15T17:03:20;5.65;;;3.47;;
29202;SDS011;16245;51.170;4.884;2022-11-15T17:05:47;5.63;;;3.80;;
29202;SDS011;16245;51.170;4.884;2022-11-15T17:08:13;7.32;;;3.47;;
29202;SDS011;16245;51.170;4.884;2022-11-15T17:10:39;7.35;;;3.50;;
29202;SDS011;16245;51.170;4.884;2022-11-15T17:13:05;7.30;;;3.72;;
29202;SDS011;16245;51.170;4.884;2022-11-15T17:15:33;8.73;;;4.10;;
29202;SDS011;16245;51.170;4.884;2022-11-15T17:17:59;8.40;;;3.40;;
29202;SDS011;16245;51.170;4.884;2022-11-15T17:20:24;8.48;;;3.50;;
29202;SDS011;16245;51.170;4.884;2022-11-15T17:22:50;6.13;;;3.38;;
29202;SDS011;16245;51.170;4.884;2022-11-15T17:25:16;7.07;;;3.80;;
29202;SDS011;16245;51.170;4.884;2022-11-15T17:27:43;5.38;;;3.50;;
29202;SDS011;16245;51.170;4.884;2022-11-15T17:30:09;5.78;;;3.63;;
29202;SDS011;16245;51.170;4.884;2022-11-15T17:32:39;8.13;;;3.75;;
29202;SDS011;16245;51.170;4.884;2022-11-15T17:35:05;5.32;;;4.28;;
29202;SDS011;16245;51.170;4.884;2022-11-15T17:37:31;5.50;;;3.95;;
29202;SDS011;16245;51.170;4.884;2022-11-15T17:39:58;5.60;;;3.92;;